Detroit (DTW/KDTW)

Information

Location
Detroit, MI
Local Time
20:08 / 8:08 pm
GMT Time
00:08 / 12:08 am
Gates
No FAA reported delays
METAR KDTW 252353Z 10011KT 10SM BKN250 18/12 A2973 RMK AO2 SLP069 T01780117 10217 20178 56009
TAF KDTW 252328Z 2600/2706 12007KT P6SM BKN250 FM261000 12005KT 6SM BR SCT015 BKN070 FM261300 14013KT P6SM SCT070 BKN200 FM261700 16013G20KT P6SM SCT050 SCT200 FM270100 16007KT P6SM SCT250